createdAt,value
2019-01-19T00:01:51.974Z,13.57
2019-01-19T00:04:46.796Z,10.27
2019-01-19T00:07:41.499Z,12.37
2019-01-19T00:10:41.927Z,12.20
2019-01-19T00:13:23.529Z,12.77
2019-01-19T00:16:09.152Z,12.15
2019-01-19T00:19:16.196Z,10.87
2019-01-19T00:22:09.738Z,10.63
2019-01-19T00:24:49.687Z,9.03
2019-01-19T00:27:32.205Z,10.60
2019-01-19T00:30:18.706Z,12.75
2019-01-19T00:33:30.296Z,9.97
2019-01-19T00:36:21.643Z,10.93
2019-01-19T00:39:20.451Z,12.47
2019-01-19T00:42:35.536Z,11.83
2019-01-19T00:45:38.481Z,11.50
2019-01-19T00:48:34.699Z,13.50
2019-01-19T00:51:23.590Z,11.27
2019-01-19T00:54:01.197Z,10.27
2019-01-19T00:57:06.129Z,11.97
2019-01-19T00:59:41.150Z,11.70
2019-01-19T01:02:39.178Z,12.30
2019-01-19T01:05:32.660Z,11.27
2019-01-19T01:08:29.720Z,11.40
2019-01-19T01:11:39.655Z,11.90
2019-01-19T01:14:37.881Z,11.47
2019-01-19T01:17:13.152Z,13.10
2019-01-19T01:20:32.342Z,12.90
2019-01-19T01:23:19.248Z,12.45
2019-01-19T01:26:28.380Z,11.53
2019-01-19T01:29:44.302Z,10.67
2019-01-19T01:32:46.064Z,10.07
2019-01-19T01:35:46.008Z,9.30
2019-01-19T01:38:52.347Z,11.40
2019-01-19T01:41:46.389Z,11.67
2019-01-19T01:44:35.050Z,8.47
2019-01-19T01:47:49.788Z,9.67
2019-01-19T01:50:27.137Z,10.03
2019-01-19T01:53:18.156Z,9.83
2019-01-19T01:55:50.317Z,9.43
2019-01-19T01:58:43.693Z,11.47
2019-01-19T02:01:49.484Z,9.83
2019-01-19T02:04:53.928Z,11.77
2019-01-19T02:07:48.437Z,10.30
2019-01-19T02:11:01.977Z,11.20
2019-01-19T02:14:11.178Z,9.33
2019-01-19T02:17:05.121Z,10.73
2019-01-19T02:20:14.293Z,11.00
2019-01-19T02:23:16.372Z,10.23
2019-01-19T02:26:16.497Z,10.93
2019-01-19T02:29:00.652Z,13.23
2019-01-19T02:32:24.826Z,13.60
2019-01-19T02:35:25.106Z,11.37
2019-01-19T02:38:41.234Z,10.10
2019-01-19T02:41:37.363Z,11.07
2019-01-19T02:44:23.672Z,9.90
2019-01-19T02:47:39.807Z,11.57
2019-01-19T02:50:29.865Z,11.83
2019-01-19T02:53:38.981Z,10.30
2019-01-19T02:56:32.438Z,12.20
2019-01-19T02:59:13.612Z,12.17
2019-01-19T03:02:23.654Z,10.43
2019-01-19T03:05:36.528Z,12.03
2019-01-19T03:08:44.146Z,11.40
2019-01-19T03:11:57.685Z,12.50
2019-01-19T03:14:47.276Z,10.23
2019-01-19T03:18:03.168Z,12.20
2019-01-19T03:20:51.529Z,12.10
2019-01-19T03:23:43.488Z,9.60
2019-01-19T03:26:55.395Z,10.50
2019-01-19T03:29:33.833Z,11.37
2019-01-19T03:32:44.200Z,11.10
2019-01-19T03:35:51.196Z,8.97
2019-01-19T03:38:52.281Z,11.40
2019-01-19T03:42:06.225Z,11.07
2019-01-19T03:45:05.915Z,11.50
2019-01-19T03:48:10.960Z,8.70
2019-01-19T03:50:46.550Z,9.17
2019-01-19T03:53:58.694Z,11.53
2019-01-19T03:57:04.628Z,9.73
2019-01-19T04:00:09.512Z,10.17
2019-01-19T04:02:46.691Z,10.10
2019-01-19T04:05:51.061Z,11.83
2019-01-19T04:08:50.472Z,11.67
2019-01-19T04:11:38.206Z,10.73
2019-01-19T04:14:20.656Z,12.47
2019-01-19T04:17:33.645Z,11.10
2019-01-19T04:20:48.724Z,11.50
2019-01-19T04:23:17.512Z,11.03
2019-01-19T04:25:59.980Z,10.73
2019-01-19T04:28:28.963Z,8.83
2019-01-19T04:30:57.756Z,9.40
2019-01-19T04:33:26.695Z,11.07
2019-01-19T04:35:55.583Z,11.20
2019-01-19T04:38:24.538Z,11.70
2019-01-19T04:40:53.433Z,11.00
2019-01-19T04:43:22.333Z,10.17
2019-01-19T04:45:51.207Z,11.63
2019-01-19T04:48:22.046Z,10.80
2019-01-19T04:50:50.840Z,11.70
2019-01-19T04:53:19.642Z,10.77
2019-01-19T04:55:48.588Z,9.60
2019-01-19T04:58:17.452Z,11.07
2019-01-19T05:00:47.295Z,9.45
2019-01-19T05:03:16.088Z,8.18
2019-01-19T05:05:45.000Z,10.37
2019-01-19T05:08:13.862Z,11.37
2019-01-19T05:10:42.743Z,9.13
2019-01-19T05:13:11.627Z,9.80
2019-01-19T05:15:40.442Z,10.50
2019-01-19T05:18:09.626Z,11.97
2019-01-19T05:20:38.580Z,9.90
2019-01-19T05:23:07.513Z,10.30
2019-01-19T05:25:36.393Z,9.23
2019-01-19T05:28:05.334Z,10.23
2019-01-19T05:30:34.155Z,11.27
2019-01-19T05:33:03.022Z,11.08
2019-01-19T05:35:31.882Z,10.93
2019-01-19T05:38:01.968Z,8.10
2019-01-19T05:40:31.047Z,9.47
2019-01-19T05:42:59.911Z,8.33
2019-01-19T05:45:28.760Z,10.33
2019-01-19T05:47:57.642Z,10.93
2019-01-19T05:50:26.428Z,10.73
2019-01-19T05:52:55.308Z,8.80
2019-01-19T05:55:24.347Z,9.73
2019-01-19T05:57:53.212Z,10.73
2019-01-19T06:00:29.079Z,10.00
2019-01-19T06:02:57.901Z,9.60
2019-01-19T06:05:26.766Z,12.70
2019-01-19T06:07:55.635Z,10.90
2019-01-19T06:10:24.438Z,10.43
2019-01-19T06:12:53.245Z,10.93
2019-01-19T06:15:23.333Z,12.27
2019-01-19T06:17:52.430Z,9.60
2019-01-19T06:20:21.287Z,9.30
2019-01-19T06:22:50.104Z,11.40
2019-01-19T06:25:19.875Z,12.53
2019-01-19T06:27:48.748Z,11.23
2019-01-19T06:30:22.176Z,10.17
2019-01-19T06:32:51.054Z,10.85
2019-01-19T06:35:20.339Z,11.25
2019-01-19T06:37:49.247Z,12.10
2019-01-19T06:40:19.053Z,11.80
2019-01-19T06:42:48.050Z,10.13
2019-01-19T06:45:19.387Z,12.50
2019-01-19T06:47:48.188Z,12.00
2019-01-19T06:50:18.123Z,12.30
2019-01-19T06:52:47.063Z,9.97
2019-01-19T06:55:18.404Z,12.70
2019-01-19T06:57:47.207Z,11.83
2019-01-19T07:00:17.014Z,11.47
2019-01-19T07:02:46.170Z,12.88
2019-01-19T07:05:15.128Z,10.58
2019-01-19T07:07:44.057Z,11.03
2019-01-19T07:10:15.812Z,11.50
2019-01-19T07:12:44.683Z,11.70
2019-01-19T07:15:14.324Z,10.23
2019-01-19T07:17:43.271Z,12.83
2019-01-19T07:20:14.591Z,11.03
2019-01-19T07:22:43.621Z,13.15
2019-01-19T07:25:12.611Z,13.08
2019-01-19T07:27:41.470Z,12.00
2019-01-19T07:30:13.613Z,11.40
2019-01-19T07:32:42.486Z,12.53
2019-01-19T07:35:11.451Z,9.90
2019-01-19T07:37:40.316Z,10.50
2019-01-19T07:40:10.940Z,12.33
2019-01-19T07:42:40.819Z,11.07
2019-01-19T07:45:10.274Z,11.40
2019-01-19T07:47:40.197Z,10.60
2019-01-19T07:50:11.883Z,11.40
2019-01-19T07:52:40.824Z,10.70
2019-01-19T07:55:11.126Z,11.77
2019-01-19T07:57:40.021Z,14.10
2019-01-19T08:00:15.782Z,12.30
2019-01-19T08:02:44.737Z,12.07
2019-01-19T08:05:13.628Z,11.17
2019-01-19T08:07:42.578Z,12.00
2019-01-19T08:10:12.924Z,11.20
2019-01-19T08:12:41.915Z,13.73
2019-01-19T08:15:16.256Z,12.17
2019-01-19T08:17:45.221Z,12.43
2019-01-19T08:20:14.562Z,12.80
2019-01-19T08:22:43.562Z,20.20
2019-01-19T08:25:12.583Z,14.70
2019-01-19T08:27:41.570Z,13.28
2019-01-19T08:30:14.487Z,13.27
2019-01-19T08:32:43.337Z,15.33
2019-01-19T08:35:13.632Z,13.80
2019-01-19T08:37:42.572Z,11.00
2019-01-19T08:40:14.090Z,11.00
2019-01-19T08:42:43.356Z,12.43
2019-01-19T08:45:12.468Z,13.83
2019-01-19T08:47:41.409Z,12.43
2019-01-19T08:50:10.612Z,12.80
2019-01-19T08:52:39.480Z,13.53
2019-01-19T08:55:08.559Z,13.15
2019-01-19T08:57:37.689Z,14.03
2019-01-19T09:00:09.614Z,13.13
2019-01-19T09:02:38.653Z,11.37
2019-01-19T09:05:08.847Z,9.10
2019-01-19T09:07:37.887Z,9.33
2019-01-19T09:10:08.910Z,8.03
2019-01-19T09:12:37.690Z,8.23
2019-01-19T09:15:08.377Z,9.27
2019-01-19T09:17:37.158Z,8.67
2019-01-19T09:20:07.506Z,10.10
2019-01-19T09:22:36.419Z,7.03
2019-01-19T09:25:06.423Z,8.30
2019-01-19T09:27:35.207Z,8.43
2019-01-19T09:30:05.043Z,9.15
2019-01-19T09:32:34.099Z,7.53
2019-01-19T09:35:02.970Z,7.65
2019-01-19T09:37:31.814Z,7.63
2019-01-19T09:40:00.691Z,9.57
2019-01-19T09:42:29.481Z,7.93
2019-01-19T09:44:58.357Z,8.07
2019-01-19T09:47:27.225Z,7.00
2019-01-19T09:49:56.327Z,9.23
2019-01-19T09:52:25.206Z,7.13
2019-01-19T09:54:53.963Z,8.57
2019-01-19T09:57:22.817Z,8.50
2019-01-19T09:59:51.610Z,8.73
2019-01-19T10:02:20.513Z,9.57
2019-01-19T10:04:49.377Z,9.87
2019-01-19T10:07:18.216Z,9.27
2019-01-19T10:09:47.131Z,8.30
2019-01-19T10:12:15.911Z,9.10
2019-01-19T10:14:44.834Z,9.20
2019-01-19T10:17:13.698Z,9.00
2019-01-19T10:19:42.545Z,9.17
2019-01-19T10:22:11.481Z,6.83
2019-01-19T10:24:40.343Z,8.40
2019-01-19T10:27:09.184Z,9.57
2019-01-19T10:29:38.336Z,7.87
2019-01-19T10:32:07.272Z,9.90
2019-01-19T10:34:36.065Z,7.47
2019-01-19T10:37:04.994Z,8.68
2019-01-19T10:39:33.771Z,7.27
2019-01-19T10:42:03.234Z,8.30
2019-01-19T10:44:32.117Z,8.70
2019-01-19T10:47:00.908Z,8.20
2019-01-19T10:49:29.758Z,10.30
2019-01-19T10:51:59.464Z,8.00
2019-01-19T10:54:28.880Z,8.65
2019-01-19T10:56:57.853Z,9.83
2019-01-19T10:59:26.652Z,8.10
2019-01-19T11:01:55.449Z,8.20
2019-01-19T11:04:24.320Z,8.83
2019-01-19T11:06:53.286Z,7.67
2019-01-19T11:09:22.150Z,8.65
2019-01-19T11:11:51.184Z,8.80
2019-01-19T11:14:19.969Z,7.47
2019-01-19T11:16:48.756Z,9.30
2019-01-19T11:19:17.610Z,7.67
2019-01-19T11:21:46.706Z,8.37
2019-01-19T11:24:15.734Z,7.50
2019-01-19T11:26:44.524Z,9.33
2019-01-19T11:29:13.312Z,9.33
2019-01-19T11:31:42.189Z,9.10
2019-01-19T11:34:11.043Z,8.08
2019-01-19T11:36:40.027Z,9.70
2019-01-19T11:39:09.231Z,10.67
2019-01-19T11:41:38.017Z,8.43
2019-01-19T11:44:06.876Z,7.27
2019-01-19T11:46:35.675Z,10.47
2019-01-19T11:49:04.727Z,7.07
2019-01-19T11:51:33.703Z,6.60
2019-01-19T11:54:03.044Z,7.23
2019-01-19T11:56:31.832Z,5.77
2019-01-19T11:59:01.283Z,6.30
2019-01-19T12:01:30.152Z,5.80
2019-01-19T12:03:59.046Z,7.07
2019-01-19T12:06:27.926Z,8.40
2019-01-19T12:08:56.789Z,7.60
2019-01-19T12:11:25.574Z,8.33
2019-01-19T12:13:54.441Z,6.77
2019-01-19T12:16:23.246Z,6.53
2019-01-19T12:18:52.048Z,7.87
2019-01-19T12:21:20.938Z,6.97
2019-01-19T12:23:49.806Z,7.00
2019-01-19T12:26:18.608Z,7.40
2019-01-19T12:28:47.543Z,7.90
2019-01-19T12:31:16.471Z,6.70
2019-01-19T12:33:45.328Z,8.60
2019-01-19T12:36:14.146Z,7.83
2019-01-19T12:38:42.997Z,7.97
2019-01-19T12:41:11.788Z,6.00
2019-01-19T12:43:40.571Z,6.80
2019-01-19T12:46:11.248Z,7.97
2019-01-19T12:48:40.116Z,6.97
2019-01-19T12:51:11.180Z,7.10
2019-01-19T12:53:40.071Z,7.30
2019-01-19T12:56:09.018Z,7.87
2019-01-19T12:58:37.961Z,9.47
2019-01-19T13:01:07.013Z,7.30
2019-01-19T13:03:35.994Z,7.70
2019-01-19T13:06:17.111Z,8.30
2019-01-19T13:08:46.180Z,6.00
2019-01-19T13:11:46.054Z,5.87
2019-01-19T13:14:15.001Z,7.23
2019-01-19T13:17:33.408Z,8.67
2019-01-19T13:20:20.244Z,8.33
2019-01-19T13:23:32.275Z,7.50
2019-01-19T13:26:28.721Z,8.70
2019-01-19T13:29:31.381Z,7.65
2019-01-19T13:32:34.772Z,7.90
2019-01-19T13:35:22.065Z,8.40
2019-01-19T13:38:42.072Z,8.27
2019-01-19T13:41:25.223Z,8.80
2019-01-19T13:44:27.905Z,9.10
2019-01-19T13:47:11.032Z,8.10
2019-01-19T13:50:05.194Z,7.07
2019-01-19T13:52:55.657Z,11.43
2019-01-19T13:55:49.535Z,8.13
2019-01-19T13:58:40.247Z,10.30
2019-01-19T14:01:49.522Z,7.37
2019-01-19T14:04:55.929Z,9.90
2019-01-19T14:07:59.173Z,10.23
2019-01-19T14:10:51.015Z,8.33
2019-01-19T14:13:48.427Z,8.13
2019-01-19T14:16:41.827Z,9.33
2019-01-19T14:19:35.363Z,9.23
2019-01-19T14:22:33.885Z,8.13
2019-01-19T14:25:11.953Z,6.40
2019-01-19T14:27:57.752Z,10.07
2019-01-19T14:31:17.337Z,7.30
2019-01-19T14:34:26.084Z,7.70
2019-01-19T14:37:15.587Z,9.23
2019-01-19T14:40:16.289Z,8.03
2019-01-19T14:43:11.600Z,8.27
2019-01-19T14:46:26.352Z,10.10
2019-01-19T14:49:22.028Z,8.10
2019-01-19T14:52:30.952Z,8.87
2019-01-19T14:55:44.595Z,7.80
2019-01-19T14:58:43.331Z,6.97
2019-01-19T15:02:04.690Z,7.80
2019-01-19T15:04:50.873Z,9.70
2019-01-19T15:08:10.177Z,8.93
2019-01-19T15:10:50.757Z,8.73
2019-01-19T15:14:01.813Z,8.37
2019-01-19T15:17:00.638Z,9.55
2019-01-19T15:19:55.999Z,9.30
2019-01-19T15:22:57.466Z,9.40
2019-01-19T15:26:00.380Z,9.37
2019-01-19T15:28:51.343Z,7.20
2019-01-19T15:31:40.654Z,9.67
2019-01-19T15:34:34.207Z,8.95
2019-01-19T15:37:44.602Z,8.50
2019-01-19T15:40:59.502Z,9.77
2019-01-19T15:43:43.734Z,9.17
2019-01-19T15:46:49.805Z,10.00
2019-01-19T15:49:53.952Z,7.73
2019-01-19T15:52:51.754Z,8.10
2019-01-19T15:55:58.677Z,10.57
2019-01-19T15:59:09.835Z,10.13
2019-01-19T16:02:29.803Z,13.13
2019-01-19T16:05:17.579Z,10.87
2019-01-19T16:08:08.207Z,11.85
2019-01-19T16:11:05.287Z,12.97
2019-01-19T16:14:09.466Z,7.93
2019-01-19T16:17:10.762Z,9.50
2019-01-19T16:20:13.741Z,10.28
2019-01-19T16:23:06.952Z,9.83
2019-01-19T16:26:11.910Z,9.15
2019-01-19T16:28:59.526Z,7.70
2019-01-19T16:31:53.844Z,8.60
2019-01-19T16:35:10.455Z,9.23
2019-01-19T16:37:50.012Z,9.27
2019-01-19T16:40:37.223Z,8.17
2019-01-19T16:43:24.535Z,8.50
2019-01-19T16:47:08.165Z,9.08
2019-01-19T16:49:51.486Z,8.53
2019-01-19T16:53:04.822Z,10.87
2019-01-19T16:55:57.150Z,8.93
2019-01-19T16:58:51.478Z,7.57
2019-01-19T17:01:54.907Z,7.87
2019-01-19T17:04:57.440Z,8.07
2019-01-19T17:07:51.181Z,9.03
2019-01-19T17:10:51.418Z,8.25
2019-01-19T17:13:47.141Z,7.73
2019-01-19T17:16:44.931Z,10.00
2019-01-19T17:19:48.259Z,7.43
2019-01-19T17:22:31.006Z,8.40
2019-01-19T17:25:35.919Z,9.73
2019-01-19T17:28:44.685Z,9.90
2019-01-19T17:32:12.399Z,9.95
2019-01-19T17:34:55.689Z,10.13
2019-01-19T17:37:32.467Z,10.53
2019-01-19T17:40:37.438Z,11.90
2019-01-19T17:43:31.841Z,9.27
2019-01-19T17:46:21.120Z,11.47
2019-01-19T17:49:28.326Z,12.23
2019-01-19T17:52:30.304Z,10.70
2019-01-19T17:55:26.761Z,11.73
2019-01-19T17:58:35.789Z,12.63
2019-01-19T18:01:27.534Z,13.00
2019-01-19T18:04:32.714Z,14.33
2019-01-19T18:07:42.169Z,12.70
2019-01-19T18:10:56.798Z,11.83
2019-01-19T18:14:08.438Z,12.45
2019-01-19T18:17:16.455Z,12.80
2019-01-19T18:20:26.376Z,10.90
2019-01-19T18:23:18.285Z,13.17
2019-01-19T18:26:14.817Z,12.73
2019-01-19T18:29:14.736Z,13.67
2019-01-19T18:32:46.243Z,12.40
2019-01-19T18:36:07.206Z,12.60
2019-01-19T18:38:49.396Z,12.47
2019-01-19T18:41:59.667Z,10.50
2019-01-19T18:44:41.373Z,11.88
2019-01-19T18:47:39.858Z,13.60
2019-01-19T18:50:43.310Z,14.18
2019-01-19T18:53:32.150Z,12.60
2019-01-19T18:56:48.448Z,16.03
2019-01-19T18:59:23.865Z,12.93
2019-01-19T19:02:33.498Z,12.37
2019-01-19T19:06:01.868Z,16.25
2019-01-19T19:09:21.277Z,12.03
2019-01-19T19:12:28.083Z,12.33
2019-01-19T19:15:36.360Z,15.40
2019-01-19T19:18:54.178Z,14.30
2019-01-19T19:21:47.716Z,17.10
2019-01-19T19:24:56.876Z,15.80
2019-01-19T19:27:55.281Z,15.63
2019-01-19T19:30:53.865Z,14.60
2019-01-19T19:34:03.414Z,13.17
2019-01-19T19:37:03.352Z,13.00
2019-01-19T19:40:31.667Z,13.00
2019-01-19T19:43:23.203Z,15.17
2019-01-19T19:46:24.106Z,13.07
2019-01-19T19:49:18.705Z,10.93
2019-01-19T19:51:55.417Z,12.53
2019-01-19T19:54:25.125Z,15.10
2019-01-19T19:56:54.037Z,15.20
2019-01-19T19:59:22.947Z,17.12
2019-01-19T20:01:52.045Z,12.63
2019-01-19T20:04:20.992Z,15.77
2019-01-19T20:06:49.879Z,14.93
2019-01-19T20:09:18.975Z,13.67
2019-01-19T20:11:48.532Z,13.95
2019-01-19T20:14:17.425Z,14.25
2019-01-19T20:16:46.243Z,15.53
2019-01-19T20:19:15.187Z,15.37
2019-01-19T20:21:44.098Z,19.80
2019-01-19T20:24:12.898Z,15.33
2019-01-19T20:26:41.803Z,14.40
2019-01-19T20:29:12.711Z,16.27
2019-01-19T20:31:41.218Z,11.10
2019-01-19T20:34:10.029Z,12.55
2019-01-19T20:36:38.932Z,13.10
2019-01-19T20:39:09.728Z,14.57
2019-01-19T20:41:38.635Z,16.27
2019-01-19T20:44:07.508Z,13.73
2019-01-19T20:46:36.330Z,13.60
2019-01-19T20:49:05.417Z,12.53
2019-01-19T20:51:34.307Z,11.73
2019-01-19T20:54:03.120Z,15.87
2019-01-19T20:56:31.927Z,13.77
2019-01-19T20:59:00.825Z,12.93
2019-01-19T21:01:29.622Z,14.70
2019-01-19T21:03:58.447Z,15.40
2019-01-19T21:06:27.460Z,12.17
2019-01-19T21:08:56.332Z,12.63
2019-01-19T21:11:25.217Z,16.40
2019-01-19T21:13:54.051Z,14.33
2019-01-19T21:16:22.943Z,14.20
2019-01-19T21:18:52.013Z,14.70
2019-01-19T21:21:20.821Z,13.70
2019-01-19T21:23:49.803Z,15.95
2019-01-19T21:26:18.639Z,15.18
2019-01-19T21:28:47.601Z,16.60
2019-01-19T21:31:16.481Z,17.37
2019-01-19T21:33:45.266Z,15.77
2019-01-19T21:36:14.234Z,20.57
2019-01-19T21:38:43.107Z,15.32
2019-01-19T21:41:11.978Z,16.03
2019-01-19T21:43:40.839Z,18.00
2019-01-19T21:46:09.795Z,14.50
2019-01-19T21:48:38.666Z,15.50
2019-01-19T21:51:07.610Z,15.05
2019-01-19T21:53:36.428Z,14.90
2019-01-19T21:56:05.747Z,15.53
2019-01-19T21:58:34.717Z,16.13
2019-01-19T22:02:40.295Z,14.43
2019-01-19T22:05:09.266Z,18.33
2019-01-19T22:07:38.155Z,13.78
2019-01-19T22:10:09.746Z,16.30
2019-01-19T22:12:38.564Z,16.23
2019-01-19T22:15:10.214Z,17.90
2019-01-19T22:17:39.832Z,20.23
2019-01-19T22:20:11.295Z,17.87
2019-01-19T22:22:40.247Z,18.97
2019-01-19T22:25:09.385Z,23.00
2019-01-19T22:27:40.186Z,18.97
2019-01-19T22:30:12.440Z,20.17
2019-01-19T22:32:41.380Z,30.43
2019-01-19T22:35:11.033Z,18.77
2019-01-19T22:37:39.923Z,21.93
2019-01-19T22:40:12.140Z,19.30
2019-01-19T22:42:40.947Z,15.17
2019-01-19T22:45:11.784Z,20.00
2019-01-19T22:47:40.647Z,16.77
2019-01-19T22:50:12.181Z,17.15
2019-01-19T22:52:41.121Z,17.07
2019-01-19T22:55:10.293Z,15.80
2019-01-19T22:57:39.099Z,18.83
2019-01-19T23:00:59.324Z,17.23
2019-01-19T23:03:30.346Z,18.20
2019-01-19T23:05:59.301Z,18.37
2019-01-19T23:08:28.486Z,17.48
2019-01-19T23:11:01.351Z,12.15
2019-01-19T23:13:28.726Z,16.95
2019-01-19T23:15:57.696Z,17.57
2019-01-19T23:18:26.568Z,17.42
2019-01-19T23:20:55.356Z,18.13
2019-01-19T23:23:24.230Z,15.87
2019-01-19T23:25:53.041Z,21.20
2019-01-19T23:28:22.082Z,22.42
2019-01-19T23:30:50.882Z,21.33
2019-01-19T23:33:19.853Z,23.07
2019-01-19T23:35:48.718Z,22.17
2019-01-19T23:38:17.515Z,18.77
2019-01-19T23:40:46.307Z,19.45
2019-01-19T23:43:15.175Z,23.70
2019-01-19T23:45:44.046Z,19.27
2019-01-19T23:48:12.824Z,22.17
2019-01-19T23:50:41.755Z,20.03
2019-01-19T23:53:10.650Z,15.10
2019-01-19T23:55:39.607Z,16.80
2019-01-19T23:58:08.468Z,19.20
